sensor_id;sensor_type;location;lat;lon;timestamp;P1;durP1;ratioP1;P2;durP2;ratioP2
63379;SDS011;53160;55.014;73.156;2023-04-29T00:03:17;44.40;;;39.40;;
63379;SDS011;53160;55.014;73.156;2023-04-29T00:05:44;44.20;;;39.20;;
63379;SDS011;53160;55.014;73.156;2023-04-29T00:08:11;58.80;;;48.00;;
63379;SDS011;53160;55.014;73.156;2023-04-29T00:10:37;57.40;;;47.00;;
63379;SDS011;53160;55.014;73.156;2023-04-29T00:13:21;66.40;;;54.20;;
63379;SDS011;53160;55.014;73.156;2023-04-29T00:15:47;64.50;;;53.00;;
63379;SDS011;53160;55.014;73.156;2023-04-29T00:18:13;69.00;;;57.00;;
63379;SDS011;53160;55.014;73.156;2023-04-29T00:20:39;67.20;;;56.60;;
63379;SDS011;53160;55.014;73.156;2023-04-29T00:23:24;65.20;;;54.00;;
63379;SDS011;53160;55.014;73.156;2023-04-29T00:25:57;65.60;;;54.40;;
63379;SDS011;53160;55.014;73.156;2023-04-29T00:28:26;67.20;;;55.20;;
63379;SDS011;53160;55.014;73.156;2023-04-29T00:30:52;73.60;;;60.20;;
63379;SDS011;53160;55.014;73.156;2023-04-29T00:33:18;73.20;;;60.00;;
63379;SDS011;53160;55.014;73.156;2023-04-29T00:35:44;67.50;;;54.50;;
63379;SDS011;53160;55.014;73.156;2023-04-29T00:38:11;71.60;;;58.40;;
63379;SDS011;53160;55.014;73.156;2023-04-29T00:40:37;70.50;;;58.00;;
63379;SDS011;53160;55.014;73.156;2023-04-29T00:43:04;80.40;;;62.20;;
63379;SDS011;53160;55.014;73.156;2023-04-29T00:45:48;72.20;;;57.60;;
63379;SDS011;53160;55.014;73.156;2023-04-29T00:48:15;61.60;;;53.40;;
63379;SDS011;53160;55.014;73.156;2023-04-29T00:51:00;71.80;;;57.00;;
63379;SDS011;53160;55.014;73.156;2023-04-29T00:53:27;67.80;;;53.60;;
63379;SDS011;53160;55.014;73.156;2023-04-29T00:55:53;71.60;;;58.00;;
63379;SDS011;53160;55.014;73.156;2023-04-29T00:58:20;72.20;;;58.20;;
63379;SDS011;53160;55.014;73.156;2023-04-29T01:00:48;65.80;;;53.80;;
63379;SDS011;53160;55.014;73.156;2023-04-29T01:03:17;62.20;;;51.80;;
63379;SDS011;53160;55.014;73.156;2023-04-29T01:06:36;73.20;;;59.80;;
63379;SDS011;53160;55.014;73.156;2023-04-29T01:09:05;74.00;;;60.20;;
63379;SDS011;53160;55.014;73.156;2023-04-29T01:11:52;74.40;;;60.40;;
63379;SDS011;53160;55.014;73.156;2023-04-29T01:14:20;75.40;;;60.60;;
63379;SDS011;53160;55.014;73.156;2023-04-29T01:16:51;63.40;;;53.40;;
63379;SDS011;53160;55.014;73.156;2023-04-29T01:22:06;59.00;;;50.40;;
63379;SDS011;53160;55.014;73.156;2023-04-29T01:24:33;57.40;;;45.60;;
63379;SDS011;53160;55.014;73.156;2023-04-29T01:33:05;52.80;;;45.40;;
63379;SDS011;53160;55.014;73.156;2023-04-29T01:38:38;56.20;;;45.00;;
63379;SDS011;53160;55.014;73.156;2023-04-29T01:41:17;36.20;;;30.00;;
63379;SDS011;53160;55.014;73.156;2023-04-29T01:43:49;27.40;;;24.40;;
63379;SDS011;53160;55.014;73.156;2023-04-29T01:46:30;19.80;;;18.00;;
63379;SDS011;53160;55.014;73.156;2023-04-29T01:48:57;21.00;;;20.60;;
63379;SDS011;53160;55.014;73.156;2023-04-29T01:51:23;26.00;;;23.60;;
63379;SDS011;53160;55.014;73.156;2023-04-29T01:53:50;27.80;;;22.60;;
63379;SDS011;53160;55.014;73.156;2023-04-29T01:56:40;53.20;;;41.20;;
63379;SDS011;53160;55.014;73.156;2023-04-29T01:59:29;19.60;;;18.40;;
63379;SDS011;53160;55.014;73.156;2023-04-29T02:02:15;22.20;;;20.40;;
63379;SDS011;53160;55.014;73.156;2023-04-29T02:04:57;19.60;;;18.40;;
63379;SDS011;53160;55.014;73.156;2023-04-29T02:07:33;20.20;;;19.40;;
63379;SDS011;53160;55.014;73.156;2023-04-29T02:10:04;23.00;;;22.20;;
63379;SDS011;53160;55.014;73.156;2023-04-29T02:12:37;53.00;;;43.20;;
63379;SDS011;53160;55.014;73.156;2023-04-29T02:15:05;41.60;;;32.60;;
63379;SDS011;53160;55.014;73.156;2023-04-29T02:20:23;33.60;;;29.40;;
63379;SDS011;53160;55.014;73.156;2023-04-29T02:22:49;28.00;;;25.00;;
63379;SDS011;53160;55.014;73.156;2023-04-29T02:25:26;35.80;;;32.00;;
63379;SDS011;53160;55.014;73.156;2023-04-29T02:27:53;43.20;;;38.40;;
63379;SDS011;53160;55.014;73.156;2023-04-29T02:30:19;34.40;;;32.20;;
63379;SDS011;53160;55.014;73.156;2023-04-29T02:32:45;33.20;;;27.60;;
63379;SDS011;53160;55.014;73.156;2023-04-29T02:35:29;33.60;;;26.80;;
63379;SDS011;53160;55.014;73.156;2023-04-29T02:38:00;42.20;;;36.00;;
63379;SDS011;53160;55.014;73.156;2023-04-29T02:40:54;44.20;;;34.40;;
63379;SDS011;53160;55.014;73.156;2023-04-29T02:43:20;39.80;;;34.40;;
63379;SDS011;53160;55.014;73.156;2023-04-29T02:46:06;53.60;;;36.20;;
63379;SDS011;53160;55.014;73.156;2023-04-29T02:48:32;37.20;;;29.60;;
63379;SDS011;53160;55.014;73.156;2023-04-29T02:50:58;49.60;;;36.80;;
63379;SDS011;53160;55.014;73.156;2023-04-29T02:53:24;49.00;;;41.75;;
63379;SDS011;53160;55.014;73.156;2023-04-29T02:55:50;44.20;;;38.00;;
63379;SDS011;53160;55.014;73.156;2023-04-29T02:58:16;55.40;;;38.40;;
63379;SDS011;53160;55.014;73.156;2023-04-29T03:00:42;53.80;;;43.00;;
63379;SDS011;53160;55.014;73.156;2023-04-29T03:03:08;45.00;;;38.50;;
63379;SDS011;53160;55.014;73.156;2023-04-29T03:05:35;57.80;;;42.60;;
63379;SDS011;53160;55.014;73.156;2023-04-29T03:08:05;47.20;;;36.20;;
63379;SDS011;53160;55.014;73.156;2023-04-29T03:10:42;50.40;;;39.40;;
63379;SDS011;53160;55.014;73.156;2023-04-29T03:13:08;41.60;;;33.00;;
63379;SDS011;53160;55.014;73.156;2023-04-29T03:15:52;44.20;;;37.60;;
63379;SDS011;53160;55.014;73.156;2023-04-29T03:18:18;43.00;;;37.00;;
63379;SDS011;53160;55.014;73.156;2023-04-29T03:20:54;40.80;;;35.40;;
63379;SDS011;53160;55.014;73.156;2023-04-29T03:26:31;40.00;;;38.00;;
63379;SDS011;53160;55.014;73.156;2023-04-29T03:28:57;38.00;;;32.80;;
63379;SDS011;53160;55.014;73.156;2023-04-29T03:31:47;37.40;;;33.00;;
63379;SDS011;53160;55.014;73.156;2023-04-29T03:34:14;60.40;;;44.60;;
63379;SDS011;53160;55.014;73.156;2023-04-29T03:36:56;45.80;;;36.40;;
63379;SDS011;53160;55.014;73.156;2023-04-29T03:39:22;28.40;;;27.80;;
63379;SDS011;53160;55.014;73.156;2023-04-29T03:42:11;51.40;;;38.40;;
63379;SDS011;53160;55.014;73.156;2023-04-29T03:47:22;35.80;;;30.80;;
63379;SDS011;53160;55.014;73.156;2023-04-29T03:49:48;26.80;;;23.60;;
63379;SDS011;53160;55.014;73.156;2023-04-29T03:52:24;43.80;;;39.60;;
63379;SDS011;53160;55.014;73.156;2023-04-29T03:55:10;47.00;;;37.20;;
63379;SDS011;53160;55.014;73.156;2023-04-29T04:00:32;34.80;;;30.80;;
63379;SDS011;53160;55.014;73.156;2023-04-29T04:03:07;33.60;;;32.00;;
63379;SDS011;53160;55.014;73.156;2023-04-29T04:05:34;32.60;;;30.40;;
63379;SDS011;53160;55.014;73.156;2023-04-29T04:08:11;34.40;;;32.40;;
63379;SDS011;53160;55.014;73.156;2023-04-29T04:10:46;31.20;;;29.00;;
63379;SDS011;53160;55.014;73.156;2023-04-29T04:13:38;28.20;;;27.20;;
63379;SDS011;53160;55.014;73.156;2023-04-29T04:16:23;35.40;;;34.40;;
63379;SDS011;53160;55.014;73.156;2023-04-29T04:18:50;31.00;;;30.20;;
63379;SDS011;53160;55.014;73.156;2023-04-29T04:21:43;32.00;;;31.20;;
63379;SDS011;53160;55.014;73.156;2023-04-29T04:24:09;34.80;;;32.00;;
63379;SDS011;53160;55.014;73.156;2023-04-29T04:26:53;33.60;;;33.20;;
63379;SDS011;53160;55.014;73.156;2023-04-29T04:29:33;40.80;;;36.80;;
63379;SDS011;53160;55.014;73.156;2023-04-29T04:32:21;38.00;;;34.60;;
63379;SDS011;53160;55.014;73.156;2023-04-29T04:34:48;45.20;;;37.20;;
63379;SDS011;53160;55.014;73.156;2023-04-29T04:37:20;42.20;;;36.40;;
63379;SDS011;53160;55.014;73.156;2023-04-29T04:39:50;30.00;;;30.00;;
63379;SDS011;53160;55.014;73.156;2023-04-29T04:42:17;33.80;;;32.60;;
63379;SDS011;53160;55.014;73.156;2023-04-29T04:44:45;44.40;;;39.00;;
63379;SDS011;53160;55.014;73.156;2023-04-29T04:50:38;30.40;;;29.20;;
63379;SDS011;53160;55.014;73.156;2023-04-29T04:53:14;26.60;;;26.00;;
63379;SDS011;53160;55.014;73.156;2023-04-29T04:55:50;26.00;;;24.60;;
63379;SDS011;53160;55.014;73.156;2023-04-29T04:58:16;34.00;;;28.20;;
63379;SDS011;53160;55.014;73.156;2023-04-29T05:00:43;20.60;;;19.00;;
63379;SDS011;53160;55.014;73.156;2023-04-29T05:03:46;18.80;;;18.40;;
63379;SDS011;53160;55.014;73.156;2023-04-29T05:08:58;20.20;;;19.80;;
63379;SDS011;53160;55.014;73.156;2023-04-29T05:11:26;20.00;;;19.40;;
63379;SDS011;53160;55.014;73.156;2023-04-29T05:14:21;22.60;;;22.60;;
63379;SDS011;53160;55.014;73.156;2023-04-29T05:16:52;21.40;;;20.40;;
63379;SDS011;53160;55.014;73.156;2023-04-29T05:19:19;18.60;;;17.00;;
63379;SDS011;53160;55.014;73.156;2023-04-29T05:24:40;22.20;;;22.20;;
63379;SDS011;53160;55.014;73.156;2023-04-29T05:29:51;23.20;;;21.40;;
63379;SDS011;53160;55.014;73.156;2023-04-29T05:32:17;32.20;;;29.00;;
63379;SDS011;53160;55.014;73.156;2023-04-29T05:34:43;38.40;;;35.80;;
63379;SDS011;53160;55.014;73.156;2023-04-29T05:40:22;44.00;;;39.60;;
63379;SDS011;53160;55.014;73.156;2023-04-29T05:42:50;33.00;;;31.80;;
63379;SDS011;53160;55.014;73.156;2023-04-29T05:45:35;35.80;;;34.80;;
63379;SDS011;53160;55.014;73.156;2023-04-29T05:48:03;41.80;;;37.00;;
63379;SDS011;53160;55.014;73.156;2023-04-29T05:50:29;44.40;;;38.60;;
63379;SDS011;53160;55.014;73.156;2023-04-29T05:53:00;41.20;;;36.40;;
63379;SDS011;53160;55.014;73.156;2023-04-29T05:55:26;40.60;;;37.60;;
63379;SDS011;53160;55.014;73.156;2023-04-29T05:57:53;46.80;;;39.00;;
63379;SDS011;53160;55.014;73.156;2023-04-29T06:00:20;39.00;;;36.00;;
63379;SDS011;53160;55.014;73.156;2023-04-29T06:02:46;44.20;;;38.40;;
63379;SDS011;53160;55.014;73.156;2023-04-29T06:05:14;39.20;;;35.80;;
63379;SDS011;53160;55.014;73.156;2023-04-29T06:07:59;36.60;;;33.80;;
63379;SDS011;53160;55.014;73.156;2023-04-29T06:10:31;31.60;;;30.20;;
63379;SDS011;53160;55.014;73.156;2023-04-29T06:12:58;34.60;;;33.00;;
63379;SDS011;53160;55.014;73.156;2023-04-29T06:15:48;38.80;;;33.20;;
63379;SDS011;53160;55.014;73.156;2023-04-29T06:21:00;31.00;;;29.80;;
63379;SDS011;53160;55.014;73.156;2023-04-29T06:26:15;35.60;;;34.60;;
63379;SDS011;53160;55.014;73.156;2023-04-29T06:31:50;40.60;;;34.20;;
63379;SDS011;53160;55.014;73.156;2023-04-29T06:34:16;39.60;;;35.80;;
63379;SDS011;53160;55.014;73.156;2023-04-29T06:37:08;34.00;;;33.80;;
63379;SDS011;53160;55.014;73.156;2023-04-29T06:40:07;43.00;;;38.00;;
63379;SDS011;53160;55.014;73.156;2023-04-29T06:46:15;32.20;;;32.00;;
63379;SDS011;53160;55.014;73.156;2023-04-29T06:49:00;33.80;;;31.60;;
63379;SDS011;53160;55.014;73.156;2023-04-29T06:51:26;31.60;;;31.00;;
63379;SDS011;53160;55.014;73.156;2023-04-29T06:53:58;34.40;;;33.40;;
63379;SDS011;53160;55.014;73.156;2023-04-29T06:59:09;17.80;;;17.00;;
63379;SDS011;53160;55.014;73.156;2023-04-29T07:01:37;27.00;;;26.20;;
63379;SDS011;53160;55.014;73.156;2023-04-29T07:04:08;21.20;;;21.20;;
63379;SDS011;53160;55.014;73.156;2023-04-29T07:06:52;23.40;;;22.40;;
63379;SDS011;53160;55.014;73.156;2023-04-29T07:09:29;25.20;;;23.60;;
63379;SDS011;53160;55.014;73.156;2023-04-29T07:11:55;23.00;;;23.00;;
63379;SDS011;53160;55.014;73.156;2023-04-29T07:14:21;26.75;;;25.25;;
63379;SDS011;53160;55.014;73.156;2023-04-29T07:16:51;22.00;;;21.20;;
63379;SDS011;53160;55.014;73.156;2023-04-29T07:22:36;25.60;;;24.40;;
63379;SDS011;53160;55.014;73.156;2023-04-29T07:25:12;26.40;;;25.20;;
63379;SDS011;53160;55.014;73.156;2023-04-29T07:27:44;24.60;;;23.80;;
63379;SDS011;53160;55.014;73.156;2023-04-29T07:30:10;23.00;;;22.60;;
63379;SDS011;53160;55.014;73.156;2023-04-29T07:32:36;23.40;;;23.00;;
63379;SDS011;53160;55.014;73.156;2023-04-29T07:35:04;20.00;;;19.20;;
63379;SDS011;53160;55.014;73.156;2023-04-29T07:43:19;23.60;;;23.00;;
63379;SDS011;53160;55.014;73.156;2023-04-29T07:46:03;22.60;;;22.20;;
63379;SDS011;53160;55.014;73.156;2023-04-29T07:48:47;21.20;;;20.80;;
63379;SDS011;53160;55.014;73.156;2023-04-29T07:51:32;29.60;;;27.60;;
63379;SDS011;53160;55.014;73.156;2023-04-29T07:54:03;21.80;;;20.40;;
63379;SDS011;53160;55.014;73.156;2023-04-29T07:56:30;22.80;;;21.20;;
63379;SDS011;53160;55.014;73.156;2023-04-29T07:58:56;21.40;;;20.20;;
63379;SDS011;53160;55.014;73.156;2023-04-29T08:01:25;25.00;;;23.40;;
63379;SDS011;53160;55.014;73.156;2023-04-29T08:04:14;22.80;;;22.80;;
63379;SDS011;53160;55.014;73.156;2023-04-29T08:07:03;25.20;;;25.20;;
63379;SDS011;53160;55.014;73.156;2023-04-29T08:09:29;26.80;;;22.60;;
63379;SDS011;53160;55.014;73.156;2023-04-29T08:14:40;29.80;;;25.00;;
63379;SDS011;53160;55.014;73.156;2023-04-29T08:19:55;32.40;;;31.40;;
63379;SDS011;53160;55.014;73.156;2023-04-29T08:22:59;35.00;;;33.20;;
63379;SDS011;53160;55.014;73.156;2023-04-29T08:28:16;40.40;;;34.60;;
63379;SDS011;53160;55.014;73.156;2023-04-29T08:30:42;30.40;;;29.00;;
63379;SDS011;53160;55.014;73.156;2023-04-29T08:33:08;24.00;;;23.00;;
63379;SDS011;53160;55.014;73.156;2023-04-29T08:35:34;30.00;;;26.20;;
63379;SDS011;53160;55.014;73.156;2023-04-29T08:38:03;24.40;;;23.20;;
63379;SDS011;53160;55.014;73.156;2023-04-29T08:40:42;24.20;;;23.80;;
63379;SDS011;53160;55.014;73.156;2023-04-29T08:43:09;21.00;;;21.00;;
63379;SDS011;53160;55.014;73.156;2023-04-29T08:45:35;20.00;;;20.00;;
63379;SDS011;53160;55.014;73.156;2023-04-29T08:48:02;21.60;;;21.40;;
63379;SDS011;53160;55.014;73.156;2023-04-29T08:53:15;19.60;;;18.80;;
63379;SDS011;53160;55.014;73.156;2023-04-29T08:55:43;19.20;;;19.20;;
63379;SDS011;53160;55.014;73.156;2023-04-29T08:58:10;22.40;;;21.40;;
63379;SDS011;53160;55.014;73.156;2023-04-29T09:00:36;19.40;;;18.00;;
63379;SDS011;53160;55.014;73.156;2023-04-29T09:03:26;35.40;;;32.00;;
63379;SDS011;53160;55.014;73.156;2023-04-29T09:05:53;37.80;;;33.80;;
63379;SDS011;53160;55.014;73.156;2023-04-29T09:08:23;32.20;;;30.40;;
63379;SDS011;53160;55.014;73.156;2023-04-29T09:10:52;33.20;;;31.20;;
63379;SDS011;53160;55.014;73.156;2023-04-29T09:13:29;32.00;;;31.00;;
63379;SDS011;53160;55.014;73.156;2023-04-29T09:15:56;31.20;;;29.40;;
63379;SDS011;53160;55.014;73.156;2023-04-29T09:23:38;58.25;;;47.75;;
63379;SDS011;53160;55.014;73.156;2023-04-29T09:26:04;53.60;;;45.00;;
63379;SDS011;53160;55.014;73.156;2023-04-29T09:28:35;34.60;;;31.80;;
63379;SDS011;53160;55.014;73.156;2023-04-29T09:31:02;43.00;;;36.20;;
63379;SDS011;53160;55.014;73.156;2023-04-29T09:33:54;43.20;;;36.40;;
63379;SDS011;53160;55.014;73.156;2023-04-29T09:37:03;44.00;;;37.60;;
63379;SDS011;53160;55.014;73.156;2023-04-29T09:39:11;40.60;;;34.40;;
63379;SDS011;53160;55.014;73.156;2023-04-29T09:44:23;31.40;;;30.20;;
63379;SDS011;53160;55.014;73.156;2023-04-29T09:47:02;31.00;;;30.00;;
63379;SDS011;53160;55.014;73.156;2023-04-29T09:49:30;36.80;;;33.40;;
63379;SDS011;53160;55.014;73.156;2023-04-29T09:51:58;36.00;;;32.60;;
63379;SDS011;53160;55.014;73.156;2023-04-29T09:54:34;33.80;;;31.40;;
63379;SDS011;53160;55.014;73.156;2023-04-29T09:57:14;46.60;;;39.80;;
63379;SDS011;53160;55.014;73.156;2023-04-29T09:59:43;44.80;;;37.20;;
63379;SDS011;53160;55.014;73.156;2023-04-29T10:02:11;45.75;;;39.25;;
63379;SDS011;53160;55.014;73.156;2023-04-29T10:04:40;41.00;;;35.20;;
63379;SDS011;53160;55.014;73.156;2023-04-29T10:07:07;50.20;;;42.40;;
63379;SDS011;53160;55.014;73.156;2023-04-29T10:09:34;47.20;;;40.40;;
63379;SDS011;53160;55.014;73.156;2023-04-29T10:12:02;50.20;;;42.40;;
63379;SDS011;53160;55.014;73.156;2023-04-29T10:14:30;46.40;;;39.60;;
63379;SDS011;53160;55.014;73.156;2023-04-29T10:17:07;49.60;;;41.60;;
63379;SDS011;53160;55.014;73.156;2023-04-29T10:19:39;49.20;;;41.00;;
63379;SDS011;53160;55.014;73.156;2023-04-29T10:22:11;45.20;;;39.00;;
63379;SDS011;53160;55.014;73.156;2023-04-29T10:24:40;49.60;;;40.40;;
63379;SDS011;53160;55.014;73.156;2023-04-29T10:27:08;45.80;;;38.60;;
63379;SDS011;53160;55.014;73.156;2023-04-29T10:29:39;51.00;;;43.00;;
63379;SDS011;53160;55.014;73.156;2023-04-29T10:32:06;52.00;;;42.80;;
63379;SDS011;53160;55.014;73.156;2023-04-29T10:34:36;51.40;;;43.80;;
63379;SDS011;53160;55.014;73.156;2023-04-29T10:37:12;53.80;;;44.20;;
63379;SDS011;53160;55.014;73.156;2023-04-29T10:42:14;54.50;;;44.50;;
63379;SDS011;53160;55.014;73.156;2023-04-29T10:45:15;51.60;;;43.60;;
63379;SDS011;53160;55.014;73.156;2023-04-29T10:47:27;61.00;;;48.60;;
63379;SDS011;53160;55.014;73.156;2023-04-29T10:50:03;60.00;;;49.00;;
63379;SDS011;53160;55.014;73.156;2023-04-29T10:52:51;65.20;;;54.20;;
63379;SDS011;53160;55.014;73.156;2023-04-29T10:55:17;62.80;;;51.00;;
63379;SDS011;53160;55.014;73.156;2023-04-29T10:57:43;69.25;;;59.25;;
63379;SDS011;53160;55.014;73.156;2023-04-29T11:00:20;72.50;;;65.00;;
63379;SDS011;53160;55.014;73.156;2023-04-29T11:02:46;69.75;;;61.00;;
63379;SDS011;53160;55.014;73.156;2023-04-29T11:05:12;69.75;;;61.00;;
63379;SDS011;53160;55.014;73.156;2023-04-29T11:07:49;78.50;;;73.75;;
63379;SDS011;53160;55.014;73.156;2023-04-29T11:10:42;74.75;;;68.50;;
63379;SDS011;53160;55.014;73.156;2023-04-29T11:13:21;70.75;;;62.25;;
63379;SDS011;53160;55.014;73.156;2023-04-29T11:15:49;70.25;;;62.00;;
63379;SDS011;53160;55.014;73.156;2023-04-29T11:18:15;73.25;;;65.75;;
63379;SDS011;53160;55.014;73.156;2023-04-29T11:23:38;70.75;;;62.25;;
63379;SDS011;53160;55.014;73.156;2023-04-29T11:26:06;77.25;;;74.50;;
63379;SDS011;53160;55.014;73.156;2023-04-29T11:28:32;76.33;;;73.00;;
63379;SDS011;53160;55.014;73.156;2023-04-29T11:30:59;69.75;;;60.50;;
63379;SDS011;53160;55.014;73.156;2023-04-29T11:33:30;75.00;;;69.00;;
63379;SDS011;53160;55.014;73.156;2023-04-29T11:35:58;75.75;;;69.75;;
63379;SDS011;53160;55.014;73.156;2023-04-29T11:38:37;76.75;;;71.25;;
63379;SDS011;53160;55.014;73.156;2023-04-29T11:41:10;71.50;;;64.00;;
63379;SDS011;53160;55.014;73.156;2023-04-29T11:43:40;74.50;;;68.00;;
63379;SDS011;53160;55.014;73.156;2023-04-29T11:46:13;82.25;;;79.75;;
63379;SDS011;53160;55.014;73.156;2023-04-29T11:48:45;98.75;;;94.00;;
63379;SDS011;53160;55.014;73.156;2023-04-29T11:51:18;79.75;;;75.75;;
63379;SDS011;53160;55.014;73.156;2023-04-29T11:53:44;79.50;;;75.75;;
63379;SDS011;53160;55.014;73.156;2023-04-29T11:56:10;92.00;;;88.25;;
63379;SDS011;53160;55.014;73.156;2023-04-29T11:58:37;81.50;;;75.75;;
63379;SDS011;53160;55.014;73.156;2023-04-29T12:01:03;77.00;;;66.50;;
63379;SDS011;53160;55.014;73.156;2023-04-29T12:03:31;77.25;;;71.00;;
63379;SDS011;53160;55.014;73.156;2023-04-29T12:05:57;79.75;;;74.00;;
63379;SDS011;53160;55.014;73.156;2023-04-29T12:08:24;71.20;;;60.20;;
63379;SDS011;53160;55.014;73.156;2023-04-29T12:10:55;74.20;;;66.20;;
63379;SDS011;53160;55.014;73.156;2023-04-29T12:13:22;68.40;;;58.20;;
63379;SDS011;53160;55.014;73.156;2023-04-29T12:15:49;72.00;;;60.80;;
63379;SDS011;53160;55.014;73.156;2023-04-29T12:18:16;72.00;;;61.20;;
63379;SDS011;53160;55.014;73.156;2023-04-29T12:20:43;72.00;;;62.60;;
63379;SDS011;53160;55.014;73.156;2023-04-29T12:23:20;69.20;;;57.60;;
63379;SDS011;53160;55.014;73.156;2023-04-29T12:25:49;69.60;;;58.00;;
63379;SDS011;53160;55.014;73.156;2023-04-29T12:28:27;74.50;;;67.00;;
63379;SDS011;53160;55.014;73.156;2023-04-29T12:30:58;81.25;;;76.25;;
63379;SDS011;53160;55.014;73.156;2023-04-29T12:33:24;75.00;;;68.00;;
63379;SDS011;53160;55.014;73.156;2023-04-29T12:35:56;77.50;;;72.75;;
63379;SDS011;53160;55.014;73.156;2023-04-29T12:38:24;80.00;;;75.50;;
63379;SDS011;53160;55.014;73.156;2023-04-29T12:41:03;86.50;;;83.50;;
63379;SDS011;53160;55.014;73.156;2023-04-29T12:43:32;83.50;;;81.75;;
63379;SDS011;53160;55.014;73.156;2023-04-29T12:46:02;91.50;;;89.50;;
63379;SDS011;53160;55.014;73.156;2023-04-29T12:48:31;97.00;;;91.50;;
63379;SDS011;53160;55.014;73.156;2023-04-29T12:50:57;98.75;;;95.75;;
63379;SDS011;53160;55.014;73.156;2023-04-29T12:53:28;98.50;;;94.25;;
63379;SDS011;53160;55.014;73.156;2023-04-29T12:55:54;97.25;;;95.50;;
63379;SDS011;53160;55.014;73.156;2023-04-29T12:58:20;104.00;;;98.00;;
63379;SDS011;53160;55.014;73.156;2023-04-29T13:00:46;99.00;;;96.67;;
63379;SDS011;53160;55.014;73.156;2023-04-29T13:03:12;100.33;;;98.00;;
63379;SDS011;53160;55.014;73.156;2023-04-29T13:05:39;94.25;;;91.50;;
63379;SDS011;53160;55.014;73.156;2023-04-29T13:08:16;97.50;;;94.25;;
63379;SDS011;53160;55.014;73.156;2023-04-29T13:10:42;87.00;;;82.25;;
63379;SDS011;53160;55.014;73.156;2023-04-29T13:13:08;88.00;;;85.00;;
63379;SDS011;53160;55.014;73.156;2023-04-29T13:15:35;88.00;;;84.25;;
63379;SDS011;53160;55.014;73.156;2023-04-29T13:18:03;91.25;;;85.00;;
63379;SDS011;53160;55.014;73.156;2023-04-29T13:20:29;89.25;;;85.25;;
63379;SDS011;53160;55.014;73.156;2023-04-29T13:23:02;98.00;;;94.25;;
63379;SDS011;53160;55.014;73.156;2023-04-29T13:25:30;90.75;;;87.25;;
63379;SDS011;53160;55.014;73.156;2023-04-29T13:27:56;88.67;;;83.33;;
63379;SDS011;53160;55.014;73.156;2023-04-29T13:30:22;86.00;;;81.75;;
63379;SDS011;53160;55.014;73.156;2023-04-29T13:32:54;91.50;;;86.50;;
63379;SDS011;53160;55.014;73.156;2023-04-29T13:35:20;84.25;;;79.00;;
63379;SDS011;53160;55.014;73.156;2023-04-29T13:37:46;81.50;;;72.25;;
63379;SDS011;53160;55.014;73.156;2023-04-29T13:40:13;81.20;;;66.60;;
63379;SDS011;53160;55.014;73.156;2023-04-29T13:42:39;87.00;;;80.00;;
63379;SDS011;53160;55.014;73.156;2023-04-29T13:45:09;87.25;;;82.00;;
63379;SDS011;53160;55.014;73.156;2023-04-29T13:47:35;90.25;;;84.25;;
63379;SDS011;53160;55.014;73.156;2023-04-29T13:50:01;83.00;;;73.25;;
63379;SDS011;53160;55.014;73.156;2023-04-29T13:52:27;108.00;;;100.75;;
63379;SDS011;53160;55.014;73.156;2023-04-29T13:54:55;104.50;;;97.75;;
63379;SDS011;53160;55.014;73.156;2023-04-29T13:57:20;116.33;;;108.33;;
63379;SDS011;53160;55.014;73.156;2023-04-29T13:59:47;133.25;;;114.50;;
63379;SDS011;53160;55.014;73.156;2023-04-29T14:02:17;102.50;;;95.25;;
63379;SDS011;53160;55.014;73.156;2023-04-29T14:04:44;170.00;;;152.75;;
63379;SDS011;53160;55.014;73.156;2023-04-29T14:07:09;118.33;;;107.33;;
63379;SDS011;53160;55.014;73.156;2023-04-29T14:09:40;101.00;;;93.25;;
63379;SDS011;53160;55.014;73.156;2023-04-29T14:12:06;87.00;;;81.33;;
63379;SDS011;53160;55.014;73.156;2023-04-29T14:14:32;90.50;;;81.50;;
63379;SDS011;53160;55.014;73.156;2023-04-29T14:16:58;112.33;;;106.00;;
63379;SDS011;53160;55.014;73.156;2023-04-29T14:19:26;90.25;;;81.50;;
63379;SDS011;53160;55.014;73.156;2023-04-29T14:21:55;95.50;;;85.75;;
63379;SDS011;53160;55.014;73.156;2023-04-29T14:24:21;98.00;;;85.67;;
63379;SDS011;53160;55.014;73.156;2023-04-29T14:26:47;92.00;;;84.50;;
63379;SDS011;53160;55.014;73.156;2023-04-29T14:29:13;111.50;;;98.75;;
63379;SDS011;53160;55.014;73.156;2023-04-29T14:31:39;94.75;;;92.50;;
63379;SDS011;53160;55.014;73.156;2023-04-29T14:34:06;101.00;;;94.50;;
63379;SDS011;53160;55.014;73.156;2023-04-29T14:36:32;83.67;;;71.33;;
63379;SDS011;53160;55.014;73.156;2023-04-29T14:39:08;96.00;;;82.25;;
63379;SDS011;53160;55.014;73.156;2023-04-29T14:41:34;128.00;;;121.67;;
63379;SDS011;53160;55.014;73.156;2023-04-29T14:44:10;107.75;;;95.25;;
63379;SDS011;53160;55.014;73.156;2023-04-29T14:46:46;92.75;;;79.00;;
63379;SDS011;53160;55.014;73.156;2023-04-29T14:49:13;121.75;;;110.25;;
63379;SDS011;53160;55.014;73.156;2023-04-29T14:51:39;88.67;;;72.67;;
63379;SDS011;53160;55.014;73.156;2023-04-29T14:54:15;91.00;;;79.75;;
63379;SDS011;53160;55.014;73.156;2023-04-29T14:56:46;104.75;;;95.00;;
63379;SDS011;53160;55.014;73.156;2023-04-29T14:59:12;111.75;;;108.50;;
63379;SDS011;53160;55.014;73.156;2023-04-29T15:01:38;131.00;;;119.67;;
63379;SDS011;53160;55.014;73.156;2023-04-29T15:04:04;134.00;;;123.67;;
63379;SDS011;53160;55.014;73.156;2023-04-29T15:06:30;116.33;;;102.33;;
63379;SDS011;53160;55.014;73.156;2023-04-29T15:09:03;101.00;;;88.50;;
63379;SDS011;53160;55.014;73.156;2023-04-29T15:11:30;109.75;;;97.50;;
63379;SDS011;53160;55.014;73.156;2023-04-29T15:13:57;120.00;;;110.00;;
63379;SDS011;53160;55.014;73.156;2023-04-29T15:16:23;108.50;;;103.00;;
63379;SDS011;53160;55.014;73.156;2023-04-29T15:18:49;112.25;;;100.25;;
63379;SDS011;53160;55.014;73.156;2023-04-29T15:21:25;109.25;;;102.75;;
63379;SDS011;53160;55.014;73.156;2023-04-29T15:23:52;107.50;;;101.25;;
63379;SDS011;53160;55.014;73.156;2023-04-29T15:26:18;109.00;;;100.25;;
63379;SDS011;53160;55.014;73.156;2023-04-29T15:28:49;110.75;;;107.50;;
63379;SDS011;53160;55.014;73.156;2023-04-29T15:31:16;109.50;;;103.75;;
63379;SDS011;53160;55.014;73.156;2023-04-29T15:33:42;107.67;;;98.67;;
63379;SDS011;53160;55.014;73.156;2023-04-29T15:36:18;113.50;;;102.00;;
63379;SDS011;53160;55.014;73.156;2023-04-29T15:38:44;109.00;;;100.67;;
63379;SDS011;53160;55.014;73.156;2023-04-29T15:41:10;122.25;;;113.50;;
63379;SDS011;53160;55.014;73.156;2023-04-29T15:43:37;117.75;;;110.00;;
63379;SDS011;53160;55.014;73.156;2023-04-29T15:46:04;111.75;;;102.25;;
63379;SDS011;53160;55.014;73.156;2023-04-29T15:48:31;101.25;;;98.25;;
63379;SDS011;53160;55.014;73.156;2023-04-29T15:51:15;108.50;;;100.75;;
63379;SDS011;53160;55.014;73.156;2023-04-29T15:53:41;114.25;;;106.00;;
63379;SDS011;53160;55.014;73.156;2023-04-29T15:56:09;120.00;;;108.00;;
63379;SDS011;53160;55.014;73.156;2023-04-29T15:58:35;106.50;;;102.25;;